TimeEDT,TemperatureF,Dew PointF,Humidity,Sea Level PressureIn,VisibilityMPH,Wind Direction,Wind SpeedMPH,Gust SpeedMPH,PrecipitationIn,Events,Conditions,WindDirDegrees,DateUTC
12:56 AM,28.0,26.1,92,29.92,-9999.0,ESE,8.1,-,N/A,,Unknown,110,2013-04-13 04:56:00
1:56 AM,28.0,26.1,92,29.90,-9999.0,East,6.9,-,0.03,,Unknown,100,2013-04-13 05:56:00
2:56 AM,28.0,26.1,92,29.88,-9999.0,East,10.4,-,N/A,,Unknown,100,2013-04-13 06:56:00
3:56 AM,28.0,26.1,92,29.85,-9999.0,ESE,6.9,-,N/A,,Unknown,110,2013-04-13 07:56:00
4:56 AM,28.0,26.1,92,29.84,-9999.0,East,4.6,-,N/A,,Unknown,80,2013-04-13 08:56:00
5:56 AM,28.0,26.1,92,29.84,-9999.0,East,5.8,-,0.01,,Unknown,90,2013-04-13 09:56:00
6:56 AM,28.0,26.1,92,29.81,-9999.0,ENE,4.6,-,0.02,,Unknown,70,2013-04-13 10:56:00
7:56 AM,28.9,27.0,92,29.83,-9999.0,Calm,Calm,-,N/A,,Unknown,0,2013-04-13 11:56:00
8:56 AM,30.0,28.0,92,29.82,-9999.0,Calm,Calm,-,N/A,,Unknown,0,2013-04-13 12:56:00
9:56 AM,32.0,27.0,82,29.83,-9999.0,Calm,Calm,-,N/A,,Unknown,0,2013-04-13 13:56:00
10:56 AM,32.0,28.9,88,29.81,-9999.0,Calm,Calm,-,N/A,,Unknown,0,2013-04-13 14:56:00
11:56 AM,35.1,28.9,78,29.82,-9999.0,Calm,Calm,-,N/A,,Unknown,0,2013-04-13 15:56:00
12:56 PM,36.0,30.0,79,29.81,-9999.0,Variable,3.5,-,N/A,,Unknown,0,2013-04-13 16:56:00
1:56 PM,37.0,28.9,73,29.81,-9999.0,NNW,5.8,-,N/A,,Unknown,340,2013-04-13 17:56:00
2:56 PM,37.0,30.0,76,29.81,-9999.0,Variable,4.6,-,N/A,,Unknown,0,2013-04-13 18:56:00
3:56 PM,36.0,30.9,82,29.81,-9999.0,Calm,Calm,-,N/A,,Unknown,0,2013-04-13 19:56:00
4:56 PM,35.1,30.0,82,29.81,-9999.0,NW,4.6,-,N/A,,Unknown,320,2013-04-13 20:56:00
5:56 PM,36.0,30.9,82,29.82,-9999.0,WNW,3.5,-,N/A,,Unknown,300,2013-04-13 21:56:00
6:56 PM,35.1,30.0,82,29.84,-9999.0,NNW,4.6,-,N/A,,Unknown,340,2013-04-13 22:56:00
7:56 PM,34.0,30.9,89,29.87,-9999.0,NW,3.5,-,N/A,,Unknown,320,2013-04-13 23:56:00
8:56 PM,34.0,30.9,89,29.88,-9999.0,Calm,Calm,-,N/A,,Unknown,0,2013-04-14 00:56:00
9:56 PM,34.0,30.9,89,29.88,-9999.0,Calm,Calm,-,N/A,,Unknown,0,2013-04-14 01:56:00
10:56 PM,33.1,30.9,92,29.87,-9999.0,East,4.6,-,N/A,,Unknown,80,2013-04-14 02:56:00
11:56 PM,33.1,30.9,92,29.88,-9999.0,Calm,Calm,-,N/A,,Unknown,0,2013-04-14 03:56:00